createdAt,value
2022-11-17T00:00:46.521Z,99607.47
2022-11-17T00:03:15.616Z,99596.91
2022-11-17T00:05:43.384Z,99591.66
2022-11-17T00:08:10.156Z,99600.44
2022-11-17T00:10:36.950Z,99599.59
2022-11-17T00:13:29.622Z,99600.47
2022-11-17T00:15:56.554Z,99588.13
2022-11-17T00:18:41.780Z,99581.97
2022-11-17T00:21:18.972Z,99574.91
2022-11-17T00:23:48.655Z,99567.88
2022-11-17T00:26:17.707Z,99573.16
2022-11-17T00:28:44.687Z,99581.97
2022-11-17T00:31:32.260Z,99575.81
2022-11-17T00:34:05.761Z,99566.13
2022-11-17T00:36:48.391Z,99560.00
2022-11-17T00:39:17.518Z,99560.88
2022-11-17T00:41:44.830Z,99553.84
2022-11-17T00:44:12.125Z,99566.19
2022-11-17T00:46:40.126Z,99545.91
2022-11-17T00:49:08.718Z,99544.19
2022-11-17T00:51:36.615Z,99539.81
2022-11-17T00:54:05.138Z,99529.25
2022-11-17T00:56:31.941Z,99525.72
2022-11-17T00:58:58.813Z,99532.75
2022-11-17T01:01:26.861Z,99536.28
2022-11-17T01:04:03.101Z,99528.41
2022-11-17T01:06:39.828Z,99522.25
2022-11-17T01:09:11.939Z,99515.25
2022-11-17T01:11:39.242Z,99518.78
2022-11-17T01:14:05.999Z,99521.44
2022-11-17T01:16:33.379Z,99523.19
2022-11-17T01:19:02.828Z,99518.84
2022-11-17T01:21:31.078Z,99520.63
2022-11-17T01:24:00.571Z,99511.81
2022-11-17T01:26:31.170Z,99501.22
2022-11-17T01:28:59.699Z,99492.41
2022-11-17T01:31:29.669Z,99487.13
2022-11-17T01:33:57.042Z,99482.75
2022-11-17T01:36:52.063Z,99482.75
2022-11-17T01:39:19.149Z,99474.88
2022-11-17T01:41:46.092Z,99465.25
2022-11-17T01:44:53.026Z,99463.50
2022-11-17T01:47:39.494Z,99452.09
2022-11-17T01:50:39.338Z,99458.28
2022-11-17T01:53:11.650Z,99454.81
2022-11-17T01:55:44.448Z,99452.19
2022-11-17T01:58:19.492Z,99451.31
2022-11-17T02:00:47.031Z,99449.53
2022-11-17T02:03:14.211Z,99448.66
2022-11-17T02:05:55.762Z,99435.44
2022-11-17T02:08:26.372Z,99430.19
2022-11-17T02:10:53.916Z,99437.25
2022-11-17T02:13:22.401Z,99439.03
2022-11-17T02:15:49.192Z,99446.97
2022-11-17T02:18:17.165Z,99455.75
2022-11-17T02:21:24.380Z,99439.03
2022-11-17T02:24:18.238Z,99438.16
2022-11-17T02:27:26.299Z,99423.25
2022-11-17T02:30:09.629Z,99416.19
2022-11-17T02:33:07.311Z,99408.28
2022-11-17T02:35:53.908Z,99401.25
2022-11-17T02:38:28.856Z,99398.59
2022-11-17T02:41:19.813Z,99396.00
2022-11-17T02:44:03.887Z,99396.91
2022-11-17T02:46:45.378Z,99391.63
2022-11-17T02:49:27.577Z,99392.47
2022-11-17T02:52:06.124Z,99395.97
2022-11-17T02:54:33.825Z,99393.31
2022-11-17T02:57:00.964Z,99375.69
2022-11-17T02:59:49.882Z,99373.06
2022-11-17T03:02:32.394Z,99375.69
2022-11-17T03:05:11.101Z,99372.19
2022-11-17T03:08:14.905Z,99369.59
2022-11-17T03:10:57.628Z,99366.09
2022-11-17T03:13:50.572Z,99361.69
2022-11-17T03:16:55.000Z,99362.50
2022-11-17T03:19:36.346Z,99358.16
2022-11-17T03:22:22.821Z,99342.28
2022-11-17T03:25:01.733Z,99336.13
2022-11-17T03:27:37.688Z,99345.84
2022-11-17T03:30:09.635Z,99335.31
2022-11-17T03:32:43.460Z,99339.72
2022-11-17T03:35:18.542Z,99350.28
2022-11-17T03:37:52.180Z,99336.16
2022-11-17T03:40:22.524Z,99336.16
2022-11-17T03:42:55.463Z,99333.53
2022-11-17T03:45:26.743Z,99330.00
2022-11-17T03:48:08.802Z,99328.22
2022-11-17T03:50:42.160Z,99322.06
2022-11-17T03:53:09.050Z,99340.59
2022-11-17T03:55:54.236Z,99324.75
2022-11-17T03:58:26.828Z,99316.84
2022-11-17T04:00:54.601Z,99309.81
2022-11-17T04:03:22.934Z,99318.59
2022-11-17T04:05:49.754Z,99320.38
2022-11-17T04:08:16.855Z,99322.13
2022-11-17T04:11:15.758Z,99314.22
2022-11-17T04:14:00.932Z,99322.19
2022-11-17T04:16:27.709Z,99309.91
2022-11-17T04:18:57.552Z,99302.91
2022-11-17T04:21:26.124Z,99299.34
2022-11-17T04:23:52.924Z,99297.63
2022-11-17T04:26:38.016Z,99308.19
2022-11-17T04:29:04.810Z,99289.72
2022-11-17T04:31:31.898Z,99287.06
2022-11-17T04:34:05.560Z,99281.78
2022-11-17T04:36:43.258Z,99276.56
2022-11-17T04:39:14.301Z,99286.31
2022-11-17T04:41:54.387Z,99273.13
2022-11-17T04:44:26.730Z,99274.91
2022-11-17T04:46:55.088Z,99268.78
2022-11-17T04:49:23.825Z,99264.38
2022-11-17T04:51:52.155Z,99273.19
2022-11-17T04:54:23.996Z,99282.88
2022-11-17T04:56:51.685Z,99280.25
2022-11-17T04:59:18.608Z,99284.69
2022-11-17T05:01:46.274Z,99270.63
2022-11-17T05:04:35.970Z,99269.75
2022-11-17T05:07:03.237Z,99254.78
2022-11-17T05:09:30.069Z,99263.59
2022-11-17T05:12:15.212Z,99263.66
2022-11-17T05:14:41.990Z,99253.97
2022-11-17T05:17:11.220Z,99248.69
2022-11-17T05:19:46.177Z,99243.44
2022-11-17T05:22:39.104Z,99242.50
2022-11-17T05:25:06.408Z,99244.31
2022-11-17T05:27:34.004Z,99241.69
2022-11-17T05:30:05.770Z,99240.81
2022-11-17T05:32:32.621Z,99226.69
2022-11-17T05:34:59.422Z,99232.84
2022-11-17T05:37:26.278Z,99215.28
2022-11-17T05:39:53.104Z,99222.34
2022-11-17T05:42:20.086Z,99232.00
2022-11-17T05:44:48.381Z,99216.19
2022-11-17T05:47:15.433Z,99218.81
2022-11-17T05:49:42.209Z,99223.22
2022-11-17T05:52:09.474Z,99226.81
2022-11-17T05:54:36.257Z,99225.03
2022-11-17T05:57:08.547Z,99232.09
2022-11-17T05:59:50.861Z,99227.69
2022-11-17T06:02:45.592Z,99221.53
2022-11-17T06:05:17.076Z,99232.09
2022-11-17T06:07:46.939Z,99226.94
2022-11-17T06:10:13.696Z,99221.66
2022-11-17T06:12:40.461Z,99226.06
2022-11-17T06:15:07.707Z,99226.03
2022-11-17T06:18:10.411Z,99221.69
2022-11-17T06:20:45.090Z,99233.09
2022-11-17T06:23:12.305Z,99222.56
2022-11-17T06:25:39.942Z,99219.06
2022-11-17T06:28:13.116Z,99207.63
2022-11-17T06:30:40.871Z,99223.50
2022-11-17T06:33:10.835Z,99206.81
2022-11-17T06:35:38.653Z,99213.88
2022-11-17T06:38:05.472Z,99206.88
2022-11-17T06:40:32.477Z,99215.72
2022-11-17T06:43:09.463Z,99217.50
2022-11-17T06:45:39.754Z,99214.03
2022-11-17T06:48:07.897Z,99205.31
2022-11-17T06:50:35.258Z,99210.59
2022-11-17T06:53:06.017Z,99205.41
2022-11-17T06:55:34.474Z,99209.84
2022-11-17T06:58:08.063Z,99200.22
2022-11-17T07:00:38.599Z,99193.28
2022-11-17T07:03:09.099Z,99198.59
2022-11-17T07:05:39.981Z,99203.06
2022-11-17T07:08:08.497Z,99195.16
2022-11-17T07:10:36.502Z,99198.69
2022-11-17T07:13:03.413Z,99195.22
2022-11-17T07:15:30.499Z,99194.34
2022-11-17T07:17:58.494Z,99197.91
2022-11-17T07:20:25.296Z,99203.22
2022-11-17T07:22:52.337Z,99190.06
2022-11-17T07:25:22.443Z,99186.63
2022-11-17T07:27:49.436Z,99176.09
2022-11-17T07:30:16.413Z,99195.47
2022-11-17T07:32:43.221Z,99180.59
2022-11-17T07:35:10.035Z,99191.19
2022-11-17T07:37:36.817Z,99194.72
2022-11-17T07:40:03.993Z,99199.16
2022-11-17T07:42:31.816Z,99201.81
2022-11-17T07:44:58.584Z,99186.03
2022-11-17T07:47:25.348Z,99189.50
2022-11-17T07:49:52.150Z,99186.88
2022-11-17T07:52:18.954Z,99198.34
2022-11-17T07:54:45.725Z,99174.63
2022-11-17T07:57:12.661Z,99188.72
2022-11-17T07:59:39.444Z,99171.22
2022-11-17T08:02:06.436Z,99173.88
2022-11-17T08:04:33.216Z,99171.28
2022-11-17T08:07:00.069Z,99183.59
2022-11-17T08:09:26.919Z,99181.88
2022-11-17T08:11:53.814Z,99185.38
2022-11-17T08:14:20.616Z,99185.38
2022-11-17T08:16:50.041Z,99175.72
2022-11-17T08:19:16.889Z,99162.56
2022-11-17T08:21:43.684Z,99176.63
2022-11-17T08:24:12.386Z,99178.41
2022-11-17T08:26:39.178Z,99161.75
2022-11-17T08:29:06.032Z,99155.63
2022-11-17T08:31:33.201Z,99159.16
2022-11-17T08:33:59.981Z,99131.06
2022-11-17T08:36:26.838Z,99147.75
2022-11-17T08:38:53.741Z,99131.09
2022-11-17T08:41:21.652Z,99135.50
2022-11-17T08:43:50.100Z,99124.13
2022-11-17T08:46:16.860Z,99136.44
2022-11-17T08:48:43.657Z,99133.81
2022-11-17T08:51:12.845Z,99118.00
2022-11-17T08:53:39.727Z,99115.41
2022-11-17T08:56:08.351Z,99092.53
2022-11-17T08:58:45.460Z,99095.22
2022-11-17T09:01:15.814Z,99111.03
2022-11-17T09:03:45.353Z,99102.25
2022-11-17T09:06:13.775Z,99090.84
2022-11-17T09:08:47.920Z,99114.50
2022-11-17T09:11:16.375Z,99095.19
2022-11-17T09:13:43.432Z,99093.41
2022-11-17T09:16:12.125Z,99087.25
2022-11-17T09:18:40.810Z,99098.69
2022-11-17T09:21:11.874Z,99079.38
2022-11-17T09:23:39.256Z,99092.53
2022-11-17T09:26:12.964Z,99089.91
2022-11-17T09:28:40.558Z,99095.19
2022-11-17T09:31:18.049Z,99096.88
2022-11-17T09:33:45.857Z,99091.66
2022-11-17T09:36:15.414Z,99093.41
2022-11-17T09:38:42.487Z,99105.69
2022-11-17T09:41:32.400Z,99094.22
2022-11-17T09:44:17.196Z,99101.25
2022-11-17T09:47:02.811Z,99096.81
2022-11-17T09:49:58.957Z,99092.41
2022-11-17T09:52:54.743Z,99101.22
2022-11-17T09:55:34.324Z,99110.88
2022-11-17T09:58:15.332Z,99101.25
2022-11-17T10:00:48.707Z,99093.34
2022-11-17T10:03:41.821Z,99101.25
2022-11-17T10:06:22.369Z,99105.66
2022-11-17T10:08:58.287Z,99102.13
2022-11-17T10:11:34.034Z,99096.00
2022-11-17T10:14:14.944Z,99095.97
2022-11-17T10:16:58.115Z,99104.75
2022-11-17T10:19:31.184Z,99116.19
2022-11-17T10:22:04.182Z,99115.25
2022-11-17T10:24:44.137Z,99109.09
2022-11-17T10:27:19.944Z,99110.00
2022-11-17T10:30:07.705Z,99110.84
2022-11-17T10:32:48.649Z,99115.19
2022-11-17T10:35:19.548Z,99104.66
2022-11-17T10:38:12.879Z,99101.16
2022-11-17T10:40:51.093Z,99102.91
2022-11-17T10:43:37.693Z,99102.84
2022-11-17T10:46:13.441Z,99105.47
2022-11-17T10:49:04.950Z,99099.31
2022-11-17T10:51:34.329Z,99091.44
2022-11-17T10:54:17.913Z,99101.03
2022-11-17T10:56:52.201Z,99091.34
2022-11-17T10:59:29.496Z,99087.03
2022-11-17T11:01:56.374Z,99097.56
2022-11-17T11:04:36.656Z,99083.47
2022-11-17T11:07:20.677Z,99087.81
2022-11-17T11:10:18.945Z,99080.75
2022-11-17T11:13:08.084Z,99073.72
2022-11-17T11:15:36.547Z,99069.28
2022-11-17T11:18:14.020Z,99070.97
2022-11-17T11:21:25.824Z,99063.06
2022-11-17T11:24:20.933Z,99069.19
2022-11-17T11:27:04.659Z,99074.47
2022-11-17T11:30:04.213Z,99074.41
2022-11-17T11:33:14.301Z,99059.47
2022-11-17T11:36:02.921Z,99063.81
2022-11-17T11:38:51.797Z,99059.41
2022-11-17T11:41:30.358Z,99066.38
2022-11-17T11:44:24.265Z,99067.25
2022-11-17T11:47:33.339Z,99068.16
2022-11-17T11:50:23.938Z,99068.19
2022-11-17T11:52:59.603Z,99074.34
2022-11-17T11:55:36.000Z,99062.88
2022-11-17T11:58:25.618Z,99066.38
2022-11-17T12:01:03.234Z,99068.94
2022-11-17T12:03:48.543Z,99065.41
2022-11-17T12:06:42.315Z,99055.75
2022-11-17T12:09:33.456Z,99063.69
2022-11-17T12:12:01.859Z,99054.91
2022-11-17T12:14:31.392Z,99058.41
2022-11-17T12:17:23.385Z,99064.53
2022-11-17T12:20:20.813Z,99060.16
2022-11-17T12:23:05.279Z,99065.44
2022-11-17T12:25:36.031Z,99063.69
2022-11-17T12:28:40.608Z,99065.44
2022-11-17T12:31:13.187Z,99067.25
2022-11-17T12:33:51.776Z,99073.34
2022-11-17T12:36:30.152Z,99075.16
2022-11-17T12:39:00.670Z,99064.56
2022-11-17T12:41:49.305Z,99077.72
2022-11-17T12:44:37.792Z,99076.84
2022-11-17T12:47:18.395Z,99074.19
2022-11-17T12:50:09.590Z,99078.56
2022-11-17T12:53:08.315Z,99074.13
2022-11-17T12:55:35.007Z,99077.66
2022-11-17T12:58:26.436Z,99069.69
2022-11-17T13:01:23.976Z,99074.97
2022-11-17T13:04:17.704Z,99086.38
2022-11-17T13:07:06.231Z,99083.72
2022-11-17T13:09:36.448Z,99086.38
2022-11-17T13:12:10.101Z,99089.88
2022-11-17T13:14:59.245Z,99081.03
2022-11-17T13:17:42.466Z,99081.91
2022-11-17T13:20:26.872Z,99086.28
2022-11-17T13:23:02.782Z,99089.75
2022-11-17T13:25:29.537Z,99081.84
2022-11-17T13:28:03.049Z,99081.84
2022-11-17T13:30:33.496Z,99087.13
2022-11-17T13:33:03.577Z,99088.00
2022-11-17T13:35:34.180Z,99092.31
2022-11-17T13:38:23.070Z,99088.81
2022-11-17T13:40:52.567Z,99084.41
2022-11-17T13:43:25.325Z,99084.41
2022-11-17T13:45:54.557Z,99085.28
2022-11-17T13:48:40.205Z,99084.41
2022-11-17T13:51:33.236Z,99088.78
2022-11-17T13:54:03.008Z,99090.56
2022-11-17T13:56:38.506Z,99091.44
2022-11-17T13:59:32.950Z,99093.19
2022-11-17T14:02:20.736Z,99102.00
2022-11-17T14:05:09.448Z,99098.47
2022-11-17T14:07:38.881Z,99094.94
2022-11-17T14:10:21.158Z,99091.44
2022-11-17T14:13:00.837Z,99101.06
2022-11-17T14:15:41.935Z,99103.69
2022-11-17T14:18:38.120Z,99106.38
2022-11-17T14:21:11.459Z,99112.53
2022-11-17T14:23:38.978Z,99104.63
2022-11-17T14:26:06.578Z,99108.97
2022-11-17T14:28:33.610Z,99122.16
2022-11-17T14:31:00.430Z,99119.56
2022-11-17T14:33:27.220Z,99120.38
2022-11-17T14:35:59.229Z,99122.13
2022-11-17T14:38:26.281Z,99121.19
2022-11-17T14:40:53.531Z,99124.72
2022-11-17T14:43:22.578Z,99134.38
2022-11-17T14:45:50.487Z,99127.31
2022-11-17T14:48:19.308Z,99136.06
2022-11-17T14:50:47.451Z,99127.28
2022-11-17T14:53:14.445Z,99128.16
2022-11-17T14:55:41.247Z,99122.00
2022-11-17T14:58:09.775Z,99129.91
2022-11-17T15:00:36.773Z,99115.84
2022-11-17T15:03:03.683Z,99121.13
2022-11-17T15:05:30.489Z,99133.44
2022-11-17T15:07:57.275Z,99136.94
2022-11-17T15:10:24.684Z,99135.19
2022-11-17T15:12:51.603Z,99136.06
2022-11-17T15:15:18.520Z,99132.47
2022-11-17T15:17:45.343Z,99134.22
2022-11-17T15:20:12.374Z,99143.91
2022-11-17T15:22:39.290Z,99139.53
2022-11-17T15:25:06.898Z,99137.75
2022-11-17T15:27:33.653Z,99149.19
2022-11-17T15:30:00.435Z,99146.56
2022-11-17T15:32:27.214Z,99151.81
2022-11-17T15:34:54.031Z,99149.19
2022-11-17T15:37:21.269Z,99155.41
2022-11-17T15:39:48.036Z,99151.00
2022-11-17T15:42:14.865Z,99152.72
2022-11-17T15:44:41.703Z,99156.28
2022-11-17T15:47:08.480Z,99158.00
2022-11-17T15:49:35.260Z,99150.94
2022-11-17T15:52:02.217Z,99158.00
2022-11-17T15:54:29.174Z,99152.69
2022-11-17T15:56:55.987Z,99152.72
2022-11-17T15:59:22.950Z,99154.47
2022-11-17T16:01:52.187Z,99150.06
2022-11-17T16:04:19.136Z,99157.09
2022-11-17T16:06:47.009Z,99159.72
2022-11-17T16:09:16.153Z,99166.72
2022-11-17T16:11:43.413Z,99158.84
2022-11-17T16:14:10.534Z,99158.84
2022-11-17T16:16:39.150Z,99165.00
2022-11-17T16:19:06.628Z,99169.38
2022-11-17T16:21:33.732Z,99164.94
2022-11-17T16:24:03.267Z,99171.09
2022-11-17T16:26:31.017Z,99169.34
2022-11-17T16:29:06.490Z,99175.47
2022-11-17T16:31:35.823Z,99174.59
2022-11-17T16:34:11.882Z,99178.09
2022-11-17T16:36:40.818Z,99185.97
2022-11-17T16:39:11.733Z,99183.38
2022-11-17T16:41:45.398Z,99182.47
2022-11-17T16:44:15.186Z,99179.00
2022-11-17T16:46:45.013Z,99179.81
2022-11-17T16:49:15.163Z,99185.97
2022-11-17T16:51:49.102Z,99176.31
2022-11-17T16:54:16.262Z,99186.03
2022-11-17T16:56:43.079Z,99185.16
2022-11-17T16:59:11.239Z,99185.16
2022-11-17T17:01:38.596Z,99186.91
2022-11-17T17:04:08.856Z,99184.28
2022-11-17T17:06:39.683Z,99195.72
2022-11-17T17:09:08.374Z,99185.16
2022-11-17T17:11:36.642Z,99183.41
2022-11-17T17:14:06.273Z,99191.31
2022-11-17T17:16:35.706Z,99192.19
2022-11-17T17:19:06.015Z,99186.91
2022-11-17T17:21:33.647Z,99191.31
2022-11-17T17:24:00.974Z,99191.31
2022-11-17T17:26:30.677Z,99198.34
2022-11-17T17:29:00.589Z,99206.25
2022-11-17T17:31:35.101Z,99206.25
2022-11-17T17:34:02.210Z,99196.59
2022-11-17T17:36:29.258Z,99196.59
2022-11-17T17:38:59.221Z,99203.63
2022-11-17T17:41:29.161Z,99200.13
2022-11-17T17:44:02.177Z,99196.59
2022-11-17T17:46:31.174Z,99207.16
2022-11-17T17:48:58.527Z,99212.41
2022-11-17T17:51:27.912Z,99214.16
2022-11-17T17:53:57.931Z,99215.06
2022-11-17T17:56:26.148Z,99209.78
2022-11-17T17:58:56.852Z,99215.06
2022-11-17T18:01:29.220Z,99217.75
2022-11-17T18:04:04.566Z,99211.59
2022-11-17T18:06:40.575Z,99208.97
2022-11-17T18:09:10.540Z,99223.03
2022-11-17T18:11:37.559Z,99222.09
2022-11-17T18:14:04.558Z,99213.31
2022-11-17T18:16:33.661Z,99223.03
2022-11-17T18:19:03.797Z,99232.66
2022-11-17T18:21:31.385Z,99234.41
2022-11-17T18:24:01.122Z,99230.91
2022-11-17T18:26:37.822Z,99234.41
2022-11-17T18:29:08.141Z,99237.91
2022-11-17T18:31:36.838Z,99243.19
2022-11-17T18:34:07.513Z,99239.66
2022-11-17T18:36:35.545Z,99245.81
2022-11-17T18:39:03.461Z,99251.09
2022-11-17T18:41:32.106Z,99245.81
2022-11-17T18:43:58.928Z,99248.41
2022-11-17T18:46:29.949Z,99247.53
2022-11-17T18:48:57.215Z,99251.94
2022-11-17T18:51:27.404Z,99240.50
2022-11-17T18:53:57.364Z,99249.28
2022-11-17T18:56:35.988Z,99237.00
2022-11-17T18:59:11.070Z,99243.19
2022-11-17T19:01:42.846Z,99244.06
2022-11-17T19:04:11.913Z,99237.03
2022-11-17T19:06:38.711Z,99233.53
2022-11-17T19:09:06.011Z,99240.56
2022-11-17T19:11:33.896Z,99241.44
2022-11-17T19:14:05.331Z,99238.78
2022-11-17T19:16:32.887Z,99244.06
2022-11-17T19:19:00.066Z,99245.81
2022-11-17T19:21:29.963Z,99240.53
2022-11-17T19:24:04.375Z,99242.25
2022-11-17T19:26:34.127Z,99251.09
2022-11-17T19:29:04.478Z,99240.53
2022-11-17T19:31:32.012Z,99244.06
2022-11-17T19:33:59.321Z,99238.78
2022-11-17T19:36:32.489Z,99240.53
2022-11-17T19:39:01.439Z,99241.44
2022-11-17T19:41:34.615Z,99237.03
2022-11-17T19:44:05.423Z,99236.16
2022-11-17T19:46:33.443Z,99243.22
2022-11-17T19:49:00.572Z,99254.63
2022-11-17T19:51:30.545Z,99257.25
2022-11-17T19:54:01.210Z,99258.09
2022-11-17T19:56:28.431Z,99254.56
2022-11-17T19:58:55.556Z,99260.72
2022-11-17T20:01:25.934Z,99258.06
2022-11-17T20:03:53.716Z,99265.13
2022-11-17T20:06:23.930Z,99262.47
2022-11-17T20:08:50.830Z,99272.16
2022-11-17T20:11:24.220Z,99266.88
2022-11-17T20:13:51.274Z,99273.91
2022-11-17T20:16:21.835Z,99273.03
2022-11-17T20:18:51.219Z,99266.88
2022-11-17T20:21:18.795Z,99273.03
2022-11-17T20:23:46.272Z,99272.13
2022-11-17T20:26:17.667Z,99264.22
2022-11-17T20:28:44.815Z,99265.94
2022-11-17T20:31:15.009Z,99257.19
2022-11-17T20:33:43.098Z,99277.38
2022-11-17T20:36:15.243Z,99273.84
2022-11-17T20:38:42.141Z,99276.50
2022-11-17T20:41:09.191Z,99289.69
2022-11-17T20:43:36.597Z,99280.94
2022-11-17T20:46:04.121Z,99283.59
2022-11-17T20:48:33.814Z,99280.94
2022-11-17T20:51:07.780Z,99282.69
2022-11-17T20:53:35.284Z,99283.59
2022-11-17T20:56:05.023Z,99290.63
2022-11-17T20:58:32.228Z,99290.63
2022-11-17T21:00:59.537Z,99289.75
2022-11-17T21:03:27.435Z,99289.75
2022-11-17T21:06:00.104Z,99285.41
2022-11-17T21:08:30.962Z,99307.38
2022-11-17T21:11:06.211Z,99300.34
2022-11-17T21:13:35.238Z,99302.09
2022-11-17T21:16:06.475Z,99302.97
2022-11-17T21:18:34.669Z,99302.09
2022-11-17T21:21:04.414Z,99303.88
2022-11-17T21:23:31.422Z,99317.94
2022-11-17T21:25:58.429Z,99317.06
2022-11-17T21:28:25.214Z,99323.22
2022-11-17T21:30:52.000Z,99320.59
2022-11-17T21:33:18.753Z,99329.38
2022-11-17T21:35:45.557Z,99327.63
2022-11-17T21:38:13.808Z,99334.66
2022-11-17T21:40:40.613Z,99333.75
2022-11-17T21:43:07.432Z,99344.31
2022-11-17T21:45:34.293Z,99343.44
2022-11-17T21:48:01.143Z,99346.06
2022-11-17T21:50:27.923Z,99347.78
2022-11-17T21:52:54.672Z,99353.06
2022-11-17T21:55:21.540Z,99346.94
2022-11-17T21:57:50.889Z,99355.75
2022-11-17T22:00:18.153Z,99361.91
2022-11-17T22:02:44.950Z,99366.31
2022-11-17T22:05:11.704Z,99360.16
2022-11-17T22:07:38.581Z,99363.66
2022-11-17T22:10:05.995Z,99365.44
2022-11-17T22:12:32.770Z,99366.31
2022-11-17T22:14:59.864Z,99370.75
2022-11-17T22:17:26.640Z,99365.47
2022-11-17T22:19:53.421Z,99366.38
2022-11-17T22:22:20.256Z,99361.97
2022-11-17T22:24:49.718Z,99369.00
2022-11-17T22:27:17.180Z,99365.53
2022-11-17T22:29:44.054Z,99369.94
2022-11-17T22:32:10.967Z,99376.13
2022-11-17T22:34:37.766Z,99370.88
2022-11-17T22:37:04.670Z,99382.28
2022-11-17T22:39:31.468Z,99383.19
2022-11-17T22:41:58.222Z,99392.84
2022-11-17T22:44:25.006Z,99393.72
2022-11-17T22:46:51.797Z,99400.75
2022-11-17T22:49:18.849Z,99406.03
2022-11-17T22:52:03.504Z,99397.25
2022-11-17T22:54:30.673Z,99399.06
2022-11-17T22:56:58.513Z,99405.25
2022-11-17T22:59:29.949Z,99394.69
2022-11-17T23:01:57.113Z,99402.63
2022-11-17T23:04:24.065Z,99401.69
2022-11-17T23:06:51.030Z,99401.69
2022-11-17T23:09:18.355Z,99406.09
2022-11-17T23:11:45.511Z,99406.97
2022-11-17T23:14:14.765Z,99404.34
2022-11-17T23:16:42.488Z,99408.75
2022-11-17T23:19:13.750Z,99411.38
2022-11-17T23:21:41.349Z,99408.78
2022-11-17T23:24:10.282Z,99414.03
2022-11-17T23:26:37.041Z,99415.81
2022-11-17T23:29:03.831Z,99421.94
2022-11-17T23:31:30.594Z,99413.16
2022-11-17T23:33:57.409Z,99434.28
2022-11-17T23:36:24.830Z,99426.41
2022-11-17T23:38:52.155Z,99430.78
2022-11-17T23:41:22.318Z,99432.56
2022-11-17T23:43:53.942Z,99435.16
2022-11-17T23:46:25.120Z,99430.78
2022-11-17T23:48:52.354Z,99436.06
2022-11-17T23:51:22.255Z,99437.81
2022-11-17T23:53:49.559Z,99436.06
2022-11-17T23:56:17.121Z,99433.44
2022-11-17T23:58:44.080Z,99430.78
